Terminal Aerodrome Forecast
Issued by NWS

Home | Current Version | Previous Version | Text Only | Print | Product List | Glossary On
Versions: 1 2 3 4 5 6 7 8 9 10 11 12
000
FTUS44 KBMX 231132
TAFTOI
TAF
KTOI 231132Z 2312/2412 19003KT P6SM BKN250
      TEMPO 2312/2313 5SM BR SCT012
     FM231500 24005KT P6SM SCT050
     FM232200 21007KT P6SM VCTS BKN050CB
     FM240300 23003KT P6SM SCT050 BKN250
     FM240900 00000KT 4SM BR SCT100=

USA.gov is the U.S. government's official web portal to all federal, state and local government web resources and services.